Etusivu
METAR-TAF:

METAR-TAF

Lentoasemat :

Illizi, Algeria

Leveyspiiri: 26-30N, Pituuspiiri: 008-25E, korkeus merenpinnasta: 558 m

Tämänhetkinen sää

Tämä raportti tehtiin 40 minuuttia sitten, kello 10.00 UTC
Tuuli 4 kn idästä/kaakosta
Lämpötila 35°C
Kosteus 39%
Ilmanpaine 1016 hPa
Näkyvyys: 8000 m
Muutamia pilviä 4000 ft:n korkeudessa
Hajonneita pilviä 10000 ft:n korkeudessa

METAR: DAAP 291000Z 12004KT 8000 FEW040 BKN100 35/19 Q1016

Aika: 11:40 (10:40 UTC)

Sääennuste

Tämä raportti tehtiin 2 tuntia ja 40 minuuttia sitten, kello 08.00 UTC
Ennuste voimassa 29. päivästä klo 09 UTC - 29. päivään klo 18 UTC
Tuuli 10 kn idästä
Näkyvyys: 8000 m
Muutamia pilviä 4600 ft:n korkeudessa
Todennäköisyys 30% :
Ajoittain
29. päivästä klo 09 UTC - 29. päivään klo 12 UTC
Tuuli 15 kn idästä puuskistuen 25 kn:hen
Muutamia pilviä 4000 ft:n korkeudessa, Kasvava cumulus-pilvi.

TAF: DAAP 290800Z 2909/2918 08010KT 8000 FEW046 PROB30 TEMPO 2909/2912 10015G25KT FEW040TCU

Säähavainnot ja -ennusteet yli 4000 lentoasemalta (METAR- ja TAF-raportit).

Käytössä olevat sääasemat on merkitty karttaan keltaisilla ja punaisilla pisteillä.

Aseta hiiri pisteen päälle nähdäksesi sääaseman nimen.

Klikkaa sitten nähdäksesi säähavainnot ja -ennusteet.

Kartan vaihtaminen: klikkaa mustalla rastilla varustettuja vihreitä pisteitä, niin voit zoomata sisään; viivalla varustettua vihreää pistettä, niin voit zoomata ulos tai vihreitä nuolia, niin pääset viereisille kartoille.


METAR-TAF: